Time;durP1;ratioP1;P1;durP2;ratioP2;P2;SDS_P1;SDS_P2;PMS_P1;PMS_P2;Temp;Humidity;BMP_temperature;BMP_pressure;BME280_temperature;BME280_humidity;BME280_pressure;Samples;Min_cycle;Max_cycle;Signal;HPM_P1;HPM_P2
2023/10/10 00:01:48;;;;;;;10.73;4.83;;;12.80;99.90;;;13.82;100.00;98683.44;5033758;28;20473;-79
2023/10/10 00:04:19;;;;;;;9.50;5.20;;;12.70;99.90;;;13.82;100.00;98686.06;5035116;28;20942;-80
2023/10/10 00:06:49;;;;;;;14.07;4.73;;;12.70;99.90;;;13.83;100.00;98690.34;5036037;28;20843;-79
2023/10/10 00:09:23;;;;;;;10.20;5.20;;;12.70;99.90;;;13.74;100.00;98681.81;5040986;28;20490;-79
2023/10/10 00:11:53;;;;;;;17.23;5.03;;;12.70;99.90;;;13.72;100.00;98688.22;5037706;28;21021;-79
2023/10/10 00:14:27;;;;;;;21.33;5.00;;;12.70;99.90;;;13.74;100.00;98692.31;5039915;28;20465;-80
2023/10/10 00:16:59;;;;;;;11.63;5.27;;;12.70;99.90;;;13.69;100.00;98699.13;5041993;28;20508;-79
2023/10/10 00:19:31;;;;;;;8.60;4.40;;;12.70;99.90;;;13.64;100.00;98697.06;5038346;28;20461;-79
2023/10/10 00:22:04;;;;;;;11.83;4.50;;;12.60;99.90;;;13.60;100.00;98706.34;5043139;28;20527;-79
2023/10/10 00:24:33;;;;;;;8.17;3.93;;;12.60;99.90;;;13.59;100.00;98689.78;5039502;28;20458;-79
2023/10/10 00:27:12;;;;;;;12.80;4.10;;;12.60;99.90;;;13.59;100.00;98697.66;5038698;28;20461;-79
2023/10/10 00:29:43;;;;;;;11.50;4.90;;;12.60;99.90;;;13.55;100.00;98696.41;5033005;28;20589;-79
2023/10/10 00:32:17;;;;;;;20.17;5.10;;;12.50;99.90;;;13.55;100.00;98699.03;5034713;28;20465;-80
2023/10/10 00:34:47;;;;;;;15.57;5.67;;;12.40;99.90;;;13.53;100.00;98703.69;5033414;28;20476;-79
2023/10/10 00:37:21;;;;;;;9.43;4.90;;;12.40;99.90;;;13.49;100.00;98699.78;5034283;28;20471;-79
2023/10/10 00:39:53;;;;;;;9.07;4.50;;;12.40;99.90;;;13.50;100.00;98705.88;5034903;28;20465;-79
2023/10/10 00:42:36;;;;;;;10.70;4.53;;;12.40;99.90;;;13.49;100.00;98696.34;5020220;28;21046;-79
2023/10/10 00:45:13;;;;;;;10.20;5.27;;;12.40;99.90;;;13.47;100.00;98695.72;5022061;28;20455;-79
2023/10/10 00:47:47;;;;;;;12.20;5.37;;;12.40;99.90;;;13.45;100.00;98695.09;5020713;28;20554;-79
2023/10/10 00:50:23;;;;;;;10.40;4.43;;;12.30;99.90;;;13.36;100.00;98691.78;5019363;28;20528;-79
2023/10/10 00:52:55;;;;;;;12.17;5.33;;;12.40;99.90;;;13.34;100.00;98685.91;5020207;28;20497;-79
2023/10/10 00:55:26;;;;;;;9.20;4.37;;;12.40;99.90;;;13.35;100.00;98681.47;5019464;28;20529;-78
2023/10/10 00:57:58;;;;;;;10.63;4.37;;;12.30;99.90;;;13.33;100.00;98679.03;5020200;28;20462;-80
2023/10/10 01:00:30;;;;;;;9.63;4.63;;;12.30;99.90;;;13.25;100.00;98675.72;5018748;28;20480;-79
2023/10/10 01:03:20;;;;;;;10.73;4.33;;;12.30;99.90;;;13.26;100.00;98677.34;5021781;28;20534;-81
2023/10/10 01:05:55;;;;;;;9.10;4.53;;;12.20;99.90;;;13.25;100.00;98680.97;5026983;28;20558;-79
2023/10/10 01:08:30;;;;;;;9.10;4.07;;;12.20;99.90;;;13.24;100.00;98682.78;5024867;28;20471;-79
2023/10/10 01:11:04;;;;;;;8.67;4.27;;;12.20;99.90;;;13.26;100.00;98683.41;5024877;28;20542;-79
2023/10/10 01:13:34;;;;;;;9.37;4.33;;;12.20;99.90;;;13.23;100.00;98675.09;5024934;28;20547;-79
2023/10/10 01:16:05;;;;;;;10.33;3.90;;;12.10;99.90;;;13.21;100.00;98669.22;5025355;28;20489;-79
2023/10/10 01:18:51;;;;;;;12.23;4.77;;;12.10;99.90;;;13.15;100.00;98670.78;5026881;28;20472;-79
2023/10/10 01:21:30;;;;;;;9.43;4.43;;;12.10;99.90;;;13.08;100.00;98664.63;5023231;28;20849;-79
2023/10/10 01:24:08;;;;;;;10.93;4.43;;;11.90;99.90;;;13.00;100.00;98667.38;5019375;28;21042;-79
2023/10/10 01:26:44;;;;;;;9.33;4.17;;;11.90;99.90;;;12.97;100.00;98667.75;5018777;28;20879;-79
2023/10/10 01:29:25;;;;;;;10.93;5.17;;;11.80;99.90;;;12.98;100.00;98669.38;5019635;28;20499;-79
2023/10/10 01:31:58;;;;;;;12.73;4.90;;;11.80;99.90;;;12.99;100.00;98669.19;5018242;28;20524;-79
2023/10/10 01:34:32;;;;;;;10.47;4.93;;;11.80;99.90;;;12.97;100.00;98670.38;5019184;28;20458;-79
2023/10/10 01:37:07;;;;;;;12.13;4.90;;;11.80;99.90;;;12.99;100.00;98669.19;5020208;28;20469;-79
2023/10/10 01:40:13;;;;;;;7.63;3.90;;;11.80;99.90;;;12.95;100.00;98659.22;5020148;28;20458;-79
2023/10/10 01:42:45;;;;;;;11.10;4.27;;;11.90;99.90;;;12.89;100.00;98659.97;5019309;28;20557;-79
2023/10/10 01:45:18;;;;;;;11.23;4.73;;;11.80;99.90;;;12.88;100.00;98659.16;5018741;28;20993;-79
2023/10/10 01:47:57;;;;;;;8.83;4.53;;;11.70;99.90;;;12.88;100.00;98658.34;5020446;28;20958;-79
2023/10/10 01:50:30;;;;;;;12.10;4.40;;;11.70;99.90;;;12.87;100.00;98659.38;5018280;28;20517;-80
2023/10/10 01:53:05;;;;;;;9.50;3.90;;;11.80;99.90;;;12.86;100.00;98652.47;5020312;28;20542;-79
2023/10/10 01:55:37;;;;;;;9.53;3.70;;;11.80;99.90;;;12.82;100.00;98648.59;5018536;28;20490;-79
2023/10/10 01:58:11;;;;;;;7.00;4.23;;;11.80;99.90;;;12.80;100.00;98645.38;5022508;28;20468;-79
2023/10/10 02:00:46;;;;;;;7.40;3.83;;;11.70;99.90;;;12.84;100.00;98651.88;5026788;28;20490;-80
2023/10/10 02:03:17;;;;;;;8.63;4.30;;;11.80;99.90;;;12.71;100.00;98662.19;5026596;28;20974;-80
2023/10/10 02:05:51;;;;;;;8.37;4.63;;;11.70;99.90;;;12.75;100.00;98663.47;5024988;28;20468;-79
2023/10/10 02:08:23;;;;;;;10.80;4.47;;;11.70;99.90;;;12.72;100.00;98659.41;5024972;28;20504;-79
2023/10/10 02:10:55;;;;;;;7.20;3.87;;;11.70;99.90;;;12.67;100.00;98666.22;5025242;28;20486;-79
2023/10/10 02:13:25;;;;;;;10.63;4.87;;;11.70;99.90;;;12.69;100.00;98662.41;5027458;28;20973;-79
2023/10/10 02:15:55;;;;;;;16.90;4.47;;;11.80;99.90;;;12.73;100.00;98655.78;5027777;28;20458;-79
2023/10/10 02:18:38;;;;;;;12.13;4.33;;;11.70;99.90;;;12.71;100.00;98656.97;5025174;28;20880;-80
2023/10/10 02:21:09;;;;;;;10.20;4.37;;;11.70;99.90;;;12.68;100.00;98646.84;5018233;28;20479;-79
2023/10/10 02:23:44;;;;;;;8.40;3.70;;;11.60;99.90;;;12.72;100.00;98654.16;5017484;28;20557;-79
2023/10/10 02:26:23;;;;;;;8.07;4.47;;;11.70;99.90;;;12.63;100.00;98648.19;5021289;28;20540;-79
2023/10/10 02:29:16;;;;;;;10.63;4.70;;;11.50;99.90;;;12.52;100.00;98648.69;5017969;28;20473;-79
2023/10/10 02:31:55;;;;;;;9.80;4.30;;;11.60;99.90;;;12.53;100.00;98650.31;5018808;28;20494;-80
2023/10/10 02:34:30;;;;;;;15.40;5.33;;;11.40;99.90;;;12.53;100.00;98652.94;5019127;28;20466;-79
2023/10/10 02:37:13;;;;;;;9.50;4.17;;;11.40;99.90;;;12.48;100.00;98652.69;5018260;28;20473;-79
2023/10/10 02:39:56;;;;;;;8.20;4.00;;;11.50;99.90;;;12.50;100.00;98645.44;5017568;28;20463;-79
2023/10/10 02:42:27;;;;;;;11.80;4.33;;;11.40;99.90;;;12.51;100.00;98647.06;5017915;28;20473;-79
2023/10/10 02:44:58;;;;;;;8.70;4.03;;;11.40;99.90;;;12.47;100.00;98648.44;5017805;28;20468;-79
2023/10/10 02:47:32;;;;;;;9.30;4.33;;;11.40;99.90;;;12.44;100.00;98645.34;5019010;28;20461;-80
2023/10/10 02:50:11;;;;;;;10.03;4.33;;;11.40;99.90;;;12.46;100.00;98654.66;5018211;28;20461;-79
2023/10/10 02:52:45;;;;;;;12.87;4.40;;;11.40;99.90;;;12.44;100.00;98654.03;5017500;28;20462;-79
2023/10/10 02:55:22;;;;;;;8.37;4.60;;;11.50;99.90;;;12.45;100.00;98654.84;5019416;28;20891;-80
2023/10/10 02:57:53;;;;;;;6.40;3.63;;;11.40;99.90;;;12.43;100.00;98652.41;5024063;28;20461;-79
2023/10/10 03:00:34;;;;;;;11.50;4.00;;;11.50;99.90;;;12.45;100.00;98657.47;5022836;28;20481;-80
2023/10/10 03:03:05;;;;;;;6.80;3.57;;;11.50;99.90;;;12.43;100.00;98660.28;5023425;28;20461;-79
2023/10/10 03:05:43;;;;;;;7.47;3.73;;;11.40;99.90;;;12.39;100.00;98653.75;5024390;28;20846;-79
2023/10/10 03:08:16;;;;;;;8.47;4.17;;;11.40;99.90;;;12.37;100.00;98650.53;5025213;28;21455;-81
2023/10/10 03:10:54;;;;;;;8.60;4.40;;;11.30;99.90;;;12.36;100.00;98659.38;5019753;28;21129;-79
2023/10/10 03:13:37;;;;;;;7.70;3.87;;;11.20;99.90;;;12.34;100.00;98657.94;5015675;28;20583;-80
2023/10/10 03:19:27;;;;;;;8.40;4.60;;;11.10;99.90;;;12.26;100.00;98661.47;5009860;28;20889;-79
2023/10/10 03:25:04;;;;;;;8.40;4.37;;;11.20;99.90;;;12.30;100.00;98654.88;5016120;28;20465;-79
2023/10/10 03:27:50;;;;;;;10.80;4.70;;;11.30;99.90;;;12.26;100.00;98650.97;5016917;28;20465;-78
2023/10/10 03:30:21;;;;;;;8.80;3.73;;;11.20;99.90;;;12.26;100.00;98650.16;5013754;28;20470;-79
2023/10/10 03:33:09;;;;;;;12.80;4.17;;;11.20;99.90;;;12.25;100.00;98651.97;5016560;28;20593;-80
2023/10/10 03:36:06;;;;;;;9.70;3.93;;;11.20;99.90;;;12.13;100.00;98647.38;5016545;28;20459;-80
2023/10/10 03:38:58;;;;;;;9.60;3.87;;;11.20;99.90;;;12.15;100.00;98648.03;5017495;28;20458;-81
2023/10/10 05:24:55;;;;;;;6.57;3.93;;;10.20;99.90;;;11.17;100.00;98644.72;5021483;28;20458;-78
2023/10/10 05:27:29;;;;;;;9.17;3.70;;;10.20;99.90;;;11.19;100.00;98643.53;5019069;28;20520;-78
2023/10/10 05:30:00;;;;;;;13.73;4.17;;;10.20;99.90;;;11.19;100.00;98638.28;5021067;28;20480;-78
2023/10/10 05:32:32;;;;;;;10.80;4.40;;;10.10;99.90;;;11.13;100.00;98640.81;5022051;28;21008;-78
2023/10/10 05:35:10;;;;;;;9.80;5.10;;;10.00;99.90;;;11.09;100.00;98637.72;5021400;28;20462;-78
2023/10/10 05:37:40;;;;;;;9.10;4.40;;;9.90;99.90;;;11.10;100.00;98639.38;5020507;28;20465;-78
2023/10/10 05:40:13;;;;;;;6.90;3.90;;;10.00;99.90;;;11.13;100.00;98638.19;5020676;28;20470;-78
2023/10/10 05:42:45;;;;;;;9.67;4.20;;;10.00;99.90;;;11.05;100.00;98644.28;5022513;28;20469;-78
2023/10/10 05:45:15;;;;;;;11.87;4.60;;;10.00;99.90;;;11.04;100.00;98640.03;5020362;28;20829;-78
2023/10/10 05:47:45;;;;;;;8.00;4.07;;;10.00;99.90;;;10.99;100.00;98639.75;5021026;28;20917;-78
2023/10/10 05:50:18;;;;;;;12.07;4.13;;;10.00;99.90;;;11.05;100.00;98639.88;5022916;28;20584;-78
2023/10/10 05:52:48;;;;;;;13.40;4.70;;;10.00;99.90;;;11.05;100.00;98641.69;5024655;28;20999;-78
2023/10/10 05:55:20;;;;;;;11.43;4.43;;;10.00;99.90;;;11.08;100.00;98643.94;5028169;28;20467;-78
2023/10/10 05:57:50;;;;;;;6.70;3.30;;;9.90;99.90;;;11.08;100.00;98641.31;5025845;28;20461;-77
2023/10/10 06:00:25;;;;;;;7.17;3.83;;;10.00;99.90;;;11.05;100.00;98647.72;5025479;28;20486;-78
2023/10/10 06:02:55;;;;;;;6.27;3.53;;;9.90;99.90;;;11.01;100.00;98649.06;5028484;28;20987;-78
2023/10/10 06:05:24;;;;;;;14.00;4.83;;;9.90;99.90;;;11.03;100.00;98648.91;5021938;28;20613;-78
2023/10/10 06:07:54;;;;;;;9.43;4.03;;;10.00;99.90;;;11.03;100.00;98659.38;5021818;28;21132;-77
2023/10/10 06:10:28;;;;;;;8.43;4.20;;;9.90;99.90;;;11.06;100.00;98653.78;5020543;28;20466;-78
2023/10/10 06:12:58;;;;;;;9.57;4.30;;;9.90;99.90;;;11.01;100.00;98656.09;5020819;28;20596;-78
2023/10/10 06:15:28;;;;;;;6.13;3.37;;;9.90;99.90;;;10.97;100.00;98652.19;5021254;28;20462;-78
2023/10/10 06:17:59;;;;;;;12.43;3.67;;;9.90;99.90;;;11.04;100.00;98651.31;5019618;28;20468;-78
2023/10/10 06:20:31;;;;;;;10.87;3.53;;;10.00;99.90;;;11.12;100.00;98647.84;5021275;28;20462;-78
2023/10/10 06:23:02;;;;;;;8.00;4.27;;;10.00;99.90;;;11.08;100.00;98652.59;5022494;28;20462;-78
2023/10/10 06:25:34;;;;;;;10.13;3.60;;;10.10;99.90;;;11.10;100.00;98649.84;5021014;28;20489;-78
2023/10/10 06:28:06;;;;;;;10.33;4.50;;;10.00;99.90;;;11.09;100.00;98650.81;5019646;28;20464;-78
2023/10/10 06:30:36;;;;;;;10.70;4.80;;;10.00;99.90;;;11.10;100.00;98640.19;5020076;28;20505;-78
2023/10/10 06:33:14;;;;;;;10.37;4.90;;;10.10;99.90;;;11.09;100.00;98648.19;5020059;28;20491;-77
2023/10/10 06:35:52;;;;;;;7.30;4.03;;;10.10;99.90;;;11.08;100.00;98649.19;5021538;28;21119;-78
2023/10/10 06:38:24;;;;;;;12.40;4.67;;;10.10;99.90;;;11.07;100.00;98644.94;5018089;28;20465;-78
2023/10/10 06:40:55;;;;;;;8.50;3.73;;;10.00;99.90;;;11.07;100.00;98639.72;5021699;28;20462;-78
2023/10/10 06:43:25;;;;;;;6.20;3.60;;;10.00;99.90;;;11.10;100.00;98647.22;5026565;28;20963;-78
2023/10/10 06:45:55;;;;;;;8.40;3.67;;;10.00;99.90;;;11.13;100.00;98654.72;5027070;28;20863;-77
2023/10/10 06:48:40;;;;;;;10.63;3.97;;;10.10;99.90;;;11.10;100.00;98649.84;5026885;28;20469;-77
2023/10/10 06:51:11;;;;;;;9.30;4.27;;;10.10;99.90;;;11.17;100.00;98653.38;5026070;28;20466;-78
2023/10/10 06:53:45;;;;;;;8.40;4.07;;;10.10;99.90;;;11.23;100.00;98652.66;5025918;28;20591;-78
2023/10/10 06:56:17;;;;;;;6.83;3.80;;;10.20;99.90;;;11.24;100.00;98656.09;5026403;28;20522;-78
2023/10/10 06:58:47;;;;;;;9.07;3.43;;;10.20;99.90;;;11.29;100.00;98659.81;5027894;28;20561;-78
2023/10/10 07:01:19;;;;;;;10.57;4.20;;;10.20;99.90;;;11.32;100.00;98663.88;5021746;28;20462;-78
2023/10/10 07:03:54;;;;;;;9.80;4.27;;;10.20;99.90;;;11.32;100.00;98658.63;5020132;28;20480;-78
2023/10/10 07:06:24;;;;;;;7.70;3.93;;;10.20;99.90;;;11.42;100.00;98656.63;5019907;28;20544;-78
2023/10/10 07:09:14;;;;;;;10.33;4.30;;;10.40;99.90;;;11.40;100.00;98654.16;5020126;28;20495;-78
2023/10/10 07:11:44;;;;;;;8.57;3.63;;;10.40;99.90;;;11.41;100.00;98647.94;5019783;28;20978;-78
2023/10/10 07:14:16;;;;;;;9.57;4.33;;;10.40;99.90;;;11.46;100.00;98647.38;5018564;28;20889;-78
2023/10/10 07:16:47;;;;;;;9.37;4.50;;;10.40;99.90;;;11.53;100.00;98645.69;5019774;28;20467;-77
2023/10/10 07:19:22;;;;;;;6.80;4.20;;;10.40;99.90;;;11.58;100.00;98649.41;5018800;28;20463;-78
2023/10/10 07:21:51;;;;;;;9.53;4.13;;;10.60;99.90;;;11.65;100.00;98648.69;5020824;28;20814;-78
2023/10/10 07:24:28;;;;;;;18.13;5.17;;;10.70;99.90;;;11.69;100.00;98648.16;5018880;28;20469;-78
2023/10/10 07:27:05;;;;;;;9.17;4.43;;;10.80;99.90;;;11.76;100.00;98656.97;5020013;28;20465;-78
2023/10/10 07:32:27;;;;;;;9.73;4.80;;;10.90;99.90;;;11.76;100.00;98651.72;5020225;28;20548;-78
2023/10/10 07:34:58;;;;;;;12.50;4.10;;;11.00;99.90;;;11.79;100.00;98651.38;5020063;28;20458;-78
2023/10/10 07:37:29;;;;;;;8.20;3.90;;;10.90;99.90;;;11.85;100.00;98655.06;5021131;28;20470;-77
2023/10/10 07:40:18;;;;;;;9.40;3.80;;;10.90;99.90;;;11.88;100.00;98646.84;5026412;28;20849;-78
2023/10/10 07:42:51;;;;;;;8.67;4.70;;;10.90;99.90;;;11.91;100.00;98646.47;5025172;28;20969;-78
2023/10/10 07:45:28;;;;;;;9.50;4.27;;;11.00;99.90;;;11.94;100.00;98651.38;5022763;28;20532;-78
2023/10/10 07:50:48;;;;;;;8.03;4.27;;;11.00;99.90;;;12.01;100.00;98650.44;5027302;28;20470;-77
2023/10/10 07:53:20;;;;;;;8.00;4.07;;;11.00;99.90;;;12.03;100.00;98650.28;5031167;28;20556;-78
2023/10/10 07:55:59;;;;;;;7.20;3.80;;;11.10;99.90;;;12.03;100.00;98645.03;5031962;28;20557;-78
2023/10/10 07:58:49;;;;;;;9.77;4.60;;;11.10;99.90;;;12.02;100.00;98643.41;5022261;28;21026;-78
2023/10/10 08:01:23;;;;;;;16.50;4.83;;;11.00;99.90;;;12.06;100.00;98650.75;5022231;28;20848;-78
2023/10/10 08:03:53;;;;;;;7.87;4.47;;;11.10;99.90;;;12.08;100.00;98643.50;5023097;28;20473;-78
2023/10/10 08:06:22;;;;;;;9.57;5.00;;;11.20;99.90;;;12.11;100.00;98651.00;5022911;28;20500;-78
2023/10/10 08:09:18;;;;;;;9.37;4.33;;;11.10;99.90;;;12.16;100.00;98647.00;5022400;28;20482;-77
2023/10/10 08:11:46;;;;;;;9.20;4.37;;;11.30;99.90;;;12.23;100.00;98646.13;5021299;28;20516;-78
2023/10/10 08:14:21;;;;;;;11.63;4.90;;;11.30;99.90;;;12.33;100.00;98638.78;5021658;28;20901;-78
2023/10/10 08:16:58;;;;;;;8.80;3.70;;;11.40;99.90;;;12.40;100.00;98639.66;5022151;28;20871;-77
2023/10/10 08:19:33;;;;;;;9.70;4.63;;;11.50;99.90;;;12.46;100.00;98654.66;5022033;28;20457;-78
2023/10/10 08:22:12;;;;;;;7.70;4.20;;;11.50;99.90;;;12.51;100.00;98649.69;5021934;28;20465;-78
2023/10/10 08:24:43;;;;;;;7.90;4.13;;;11.60;99.90;;;12.56;100.00;98649.94;5022166;28;20462;-78
2023/10/10 08:27:14;;;;;;;7.43;3.90;;;11.70;99.90;;;12.63;100.00;98641.34;5020259;28;20949;-77
2023/10/10 08:29:45;;;;;;;9.03;4.27;;;11.70;99.90;;;12.68;100.00;98650.28;5021794;28;20484;-78
2023/10/10 08:32:15;;;;;;;9.20;4.10;;;11.80;99.90;;;12.74;100.00;98646.13;5020933;28;20879;-78
2023/10/10 08:34:44;;;;;;;7.23;3.87;;;11.80;99.90;;;12.78;100.00;98647.34;5024828;28;21039;-79
2023/10/10 08:37:15;;;;;;;14.43;4.13;;;11.90;99.90;;;12.84;100.00;98641.38;5027915;28;21079;-79
2023/10/10 08:39:49;;;;;;;10.83;4.20;;;12.00;99.90;;;12.89;100.00;98634.56;5022959;28;20471;-78
2023/10/10 08:42:22;;;;;;;8.97;4.03;;;12.10;99.90;;;12.97;100.00;98638.88;5023111;28;21190;-78
2023/10/10 08:45:01;;;;;;;9.03;3.80;;;12.10;99.90;;;13.00;100.00;98635.88;5021630;28;20489;-78
2023/10/10 08:47:33;;;;;;;10.13;4.50;;;12.20;99.90;;;13.07;100.00;98631.50;5021342;28;20521;-78
2023/10/10 08:50:06;;;;;;;10.97;4.70;;;12.20;99.90;;;13.13;100.00;98630.75;5022778;28;20470;-77
2023/10/10 08:52:40;;;;;;;8.67;4.40;;;12.30;99.90;;;13.19;100.00;98629.22;5024123;28;20835;-79
2023/10/10 08:55:18;;;;;;;8.40;3.80;;;12.40;99.90;;;13.25;100.00;98631.91;5023249;28;20897;-78
2023/10/10 08:57:51;;;;;;;8.17;4.43;;;12.40;99.90;;;13.30;100.00;98633.94;5022215;28;20554;-78
2023/10/10 09:00:26;;;;;;;7.00;4.10;;;12.50;99.90;;;13.36;100.00;98630.56;5019822;28;20465;-78
2023/10/10 09:02:58;;;;;;;7.67;4.00;;;12.50;99.90;;;13.44;100.00;98633.84;5020429;28;20476;-78
2023/10/10 09:05:29;;;;;;;7.97;4.03;;;12.60;99.90;;;13.50;100.00;98627.81;5020949;28;20459;-76
2023/10/10 09:08:06;;;;;;;8.10;4.67;;;12.70;99.90;;;13.56;100.00;98623.63;5021826;28;20516;-78
2023/10/10 09:10:40;;;;;;;13.93;4.50;;;12.70;99.90;;;13.61;100.00;98624.69;5021418;28;20467;-79
2023/10/10 09:13:09;;;;;;;7.47;3.73;;;12.80;99.90;;;13.67;100.00;98619.66;5021192;28;20466;-78
2023/10/10 09:15:56;;;;;;;10.87;4.50;;;13.00;99.90;;;13.78;100.00;98624.41;5023497;28;20491;-78
2023/10/10 09:18:27;;;;;;;10.30;3.90;;;13.00;99.90;;;13.86;100.00;98621.59;5028818;28;20536;-78
2023/10/10 09:21:18;;;;;;;8.10;4.47;;;13.10;99.90;;;13.94;100.00;98616.19;5027510;28;20462;-78
2023/10/10 09:24:07;;;;;;;9.80;4.40;;;13.10;99.90;;;14.02;100.00;98618.66;5029092;28;20466;-79
2023/10/10 09:26:42;;;;;;;8.03;4.30;;;13.30;99.90;;;14.11;100.00;98617.50;5025810;28;20525;-78
2023/10/10 09:29:18;;;;;;;11.63;4.47;;;13.40;99.90;;;14.18;100.00;98618.34;5028056;28;20466;-78
2023/10/10 09:31:59;;;;;;;10.53;4.90;;;13.50;99.90;;;14.28;100.00;98613.53;5029032;28;20473;-78
2023/10/10 09:34:35;;;;;;;7.20;3.67;;;13.60;99.90;;;14.35;100.00;98611.75;5027972;28;20525;-78
2023/10/10 09:37:07;;;;;;;9.90;3.63;;;13.70;99.90;;;14.48;100.00;98610.97;5028492;28;20500;-78
2023/10/10 09:39:40;;;;;;;12.30;4.53;;;13.80;99.90;;;14.54;100.00;98602.31;5026165;28;20466;-79
2023/10/10 09:42:28;;;;;;;10.27;4.07;;;13.90;99.90;;;14.65;100.00;98596.44;5027547;28;20461;-78
2023/10/10 09:47:55;;;;;;;8.60;3.90;;;14.10;99.90;;;14.83;100.00;98595.88;5029074;28;20984;-77
2023/10/10 09:50:33;;;;;;;7.40;4.07;;;14.20;99.90;;;14.91;100.00;98596.50;5028675;28;21054;-78
2023/10/10 09:53:19;;;;;;;20.90;4.63;;;14.30;99.90;;;15.00;100.00;98595.28;5029311;28;20462;-78
2023/10/10 09:55:53;;;;;;;11.47;4.27;;;14.50;99.90;;;15.13;100.00;98594.50;5031161;28;20480;-78
2023/10/10 09:58:27;;;;;;;14.30;3.50;;;14.60;99.90;;;15.23;100.00;98600.19;5031430;28;20478;-79
2023/10/10 10:01:12;;;;;;;11.80;4.53;;;14.70;99.90;;;15.33;100.00;98594.50;5030508;28;20484;-78
2023/10/10 10:03:59;;;;;;;8.30;3.80;;;14.80;99.90;;;15.43;100.00;98600.97;5032577;28;20465;-78
2023/10/10 10:06:54;;;;;;;8.03;3.87;;;14.90;99.90;;;15.54;100.00;98597.75;5029220;28;20467;-78
2023/10/10 10:10:00;;;;;;;8.60;3.47;;;15.10;99.90;;;15.66;100.00;98597.13;5027967;28;20548;-78
2023/10/10 10:12:59;;;;;;;8.33;3.27;;;15.20;99.90;;;15.92;100.00;98599.72;5028741;28;20835;-77
2023/10/10 10:15:49;;;;;;;6.50;3.57;;;15.40;99.90;;;16.12;100.00;98600.44;5030840;28;20499;-78
2023/10/10 10:18:44;;;;;;;6.20;3.30;;;15.60;99.90;;;16.30;100.00;98595.31;5028634;28;20542;-78
2023/10/10 10:21:27;;;;;;;5.13;2.57;;;15.70;99.90;;;16.52;100.00;98606.38;5026290;28;20454;-78
2023/10/10 10:24:15;;;;;;;7.53;3.37;;;15.90;99.90;;;16.77;100.00;98603.81;5027654;28;20465;-78
2023/10/10 10:27:06;;;;;;;7.07;3.80;;;16.20;99.90;;;16.94;100.00;98608.38;5028787;28;20478;-78
2023/10/10 10:29:42;;;;;;;7.37;3.43;;;16.40;99.90;;;17.11;100.00;98606.06;5027897;28;20470;-78
2023/10/10 10:32:17;;;;;;;8.20;3.33;;;16.60;99.90;;;17.20;100.00;98615.31;5026384;28;20535;-78
2023/10/10 10:34:55;;;;;;;11.80;3.13;;;16.60;99.90;;;17.39;100.00;98609.06;5028401;28;20494;-78
2023/10/10 10:37:28;;;;;;;8.77;3.20;;;16.80;99.90;;;17.46;100.00;98609.00;5030559;28;20454;-78
2023/10/10 10:42:50;;;;;;;11.83;3.67;;;16.90;99.90;;;17.65;100.00;98612.53;5021486;28;20480;-78
2023/10/10 10:45:34;;;;;;;7.60;3.60;;;17.10;99.90;;;17.77;100.00;98605.50;5026081;28;20486;-78
2023/10/10 10:48:28;;;;;;;8.57;3.60;;;17.20;99.90;;;17.85;100.00;98613.13;5018866;28;20887;-79
2023/10/10 10:51:04;;;;;;;8.47;3.50;;;17.30;99.90;;;17.95;100.00;98611.59;5019630;28;21015;-78
2023/10/10 10:53:40;;;;;;;7.33;3.47;;;17.40;99.90;;;18.02;100.00;98611.53;5020301;28;20949;-78
2023/10/10 10:59:19;;;;;;;8.93;3.83;;;17.50;99.90;;;18.17;100.00;98603.22;5018316;28;20962;-79
2023/10/10 11:01:55;;;;;;;11.00;3.30;;;17.60;99.90;;;18.27;100.00;98606.97;5019352;28;20470;-78
2023/10/10 11:04:42;;;;;;;7.70;3.73;;;17.70;99.90;;;18.36;100.00;98602.97;5018059;28;20463;-78
2023/10/10 11:07:26;;;;;;;9.60;3.67;;;17.70;99.90;;;18.39;100.00;98597.25;5019592;28;20818;-79
2023/10/10 11:10:07;;;;;;;5.93;3.83;;;17.70;99.90;;;18.41;100.00;98597.81;5020315;28;20456;-78
2023/10/10 11:12:40;;;;;;;9.97;4.13;;;17.80;99.90;;;18.50;100.00;98587.75;5020040;28;20462;-78
2023/10/10 11:15:12;;;;;;;6.23;3.67;;;17.90;99.90;;;18.56;100.00;98585.03;5019328;28;20532;-78
2023/10/10 11:17:45;;;;;;;9.80;4.10;;;18.00;99.90;;;18.56;100.00;98598.28;5018146;28;20977;-78
2023/10/10 11:20:55;;;;;;;11.23;3.70;;;18.00;99.90;;;18.55;100.00;98587.88;5019728;28;20466;-78
2023/10/10 11:23:41;;;;;;;9.20;3.77;;;18.00;99.90;;;18.56;100.00;98587.69;5021890;28;20461;-78
2023/10/10 11:26:16;;;;;;;9.90;4.20;;;18.10;99.90;;;18.58;100.00;98582.94;5023831;28;20553;-78
2023/10/10 11:28:48;;;;;;;8.37;3.57;;;18.10;99.90;;;18.60;100.00;98578.22;5022201;28;20477;-78
2023/10/10 11:31:47;;;;;;;7.10;3.73;;;18.20;99.90;;;18.63;100.00;98573.53;5025192;28;21154;-78
2023/10/10 11:34:33;;;;;;;9.60;3.00;;;18.20;99.90;;;18.67;100.00;98572.88;5025285;28;20993;-78
2023/10/10 11:37:14;;;;;;;5.43;3.00;;;18.20;99.90;;;18.71;100.00;98578.53;5019085;28;20539;-78
2023/10/10 11:39:57;;;;;;;9.23;4.50;;;18.20;99.90;;;18.75;100.00;98561.91;5019594;28;20521;-79
2023/10/10 11:42:33;;;;;;;8.90;3.50;;;18.30;99.90;;;18.77;100.00;98559.06;5018519;28;20454;-79
2023/10/10 11:45:05;;;;;;;7.60;3.20;;;18.30;99.90;;;18.79;100.00;98563.09;5017940;28;20564;-79
2023/10/10 11:47:42;;;;;;;7.73;3.60;;;18.30;99.90;;;18.81;100.00;98555.72;5018671;28;20478;-79
2023/10/10 11:50:15;;;;;;;9.70;4.00;;;18.40;99.90;;;18.90;100.00;98558.84;5019615;28;20461;-79
2023/10/10 11:52:56;;;;;;;13.17;3.90;;;18.40;99.90;;;18.99;100.00;98552.97;5017597;28;20508;-78
2023/10/10 11:55:26;;;;;;;10.63;3.77;;;18.50;99.90;;;19.02;100.00;98551.75;5017516;28;20498;-79
2023/10/10 11:57:58;;;;;;;10.00;3.90;;;18.50;99.90;;;19.06;100.00;98553.69;5018833;28;20476;-79
2023/10/10 12:00:30;;;;;;;7.60;4.50;;;18.50;99.90;;;19.10;100.00;98540.78;5021055;28;20463;-79
2023/10/10 12:03:05;;;;;;;9.23;3.40;;;18.60;99.90;;;19.10;100.00;98538.13;5017946;28;20546;-79
2023/10/10 12:05:46;;;;;;;12.53;4.80;;;18.60;99.90;;;19.19;100.00;98542.06;5019669;28;20481;-79
2023/10/10 12:08:22;;;;;;;8.00;3.10;;;18.70;99.90;;;19.29;100.00;98539.66;5017634;28;20498;-79
2023/10/10 12:11:04;;;;;;;7.37;3.43;;;18.80;99.90;;;19.35;100.00;98527.31;5018178;28;20970;-79
2023/10/10 12:13:35;;;;;;;10.93;4.03;;;18.80;99.90;;;19.38;100.00;98532.97;5023698;28;20531;-79
2023/10/10 12:16:10;;;;;;;7.00;3.90;;;18.80;99.90;;;19.49;100.00;98529.53;5026342;28;20480;-80
2023/10/10 12:18:46;;;;;;;7.77;4.07;;;18.90;99.90;;;19.55;100.00;98512.66;5028842;28;20467;-80
2023/10/10 12:21:20;;;;;;;8.90;3.90;;;18.90;99.90;;;19.63;100.00;98523.97;5025617;28;21255;-79
2023/10/10 12:23:52;;;;;;;10.20;4.10;;;19.10;99.90;;;19.69;100.00;98529.16;5026687;28;21079;-79
2023/10/10 12:26:25;;;;;;;7.13;4.37;;;19.00;99.90;;;19.73;100.00;98526.84;5025836;28;20526;-80
2023/10/10 12:28:56;;;;;;;19.87;4.20;;;19.10;99.90;;;19.76;100.00;98526.38;5027223;28;20553;-79
2023/10/10 12:31:24;;;;;;;8.20;3.53;;;19.10;99.90;;;19.81;100.00;98521.16;5028348;28;20462;-79
2023/10/10 12:33:54;;;;;;;8.40;4.17;;;19.20;99.90;;;19.88;100.00;98529.81;5027329;28;20523;-79
2023/10/10 12:36:30;;;;;;;9.07;3.93;;;19.30;99.90;;;19.84;100.00;98520.69;5027108;28;20493;-79
2023/10/10 12:38:59;;;;;;;8.20;4.23;;;19.30;99.90;;;19.92;100.00;98515.03;5025102;28;20520;-79
2023/10/10 12:41:35;;;;;;;15.20;4.43;;;19.30;99.90;;;19.99;100.00;98521.03;5020206;28;20453;-79
2023/10/10 12:44:06;;;;;;;9.67;3.97;;;19.40;99.90;;;20.01;100.00;98514.44;5021417;28;20461;-79
2023/10/10 12:46:36;;;;;;;5.57;3.43;;;19.40;99.90;;;20.07;100.00;98510.00;5020628;28;20458;-80
2023/10/10 12:49:11;;;;;;;10.40;4.77;;;19.40;99.90;;;20.14;100.00;98509.88;5021716;28;20478;-79
2023/10/10 12:51:44;;;;;;;11.77;4.20;;;19.50;99.90;;;20.17;100.00;98502.22;5022258;28;20517;-79